createdAt,value
2024-05-09T00:03:20.727Z,88.15
2024-05-09T00:07:23.537Z,88.26
2024-05-09T00:11:26.543Z,90.13
2024-05-09T00:15:30.781Z,90.04
2024-05-09T00:19:33.854Z,89.92
2024-05-09T00:23:37.046Z,92.09
2024-05-09T00:27:41.508Z,91.07
2024-05-09T00:31:44.309Z,90.79
2024-05-09T00:35:46.998Z,92.07
2024-05-09T00:39:49.802Z,92.80
2024-05-09T00:43:52.525Z,92.79
2024-05-09T00:47:55.684Z,93.03
2024-05-09T00:51:58.868Z,93.98
2024-05-09T00:56:01.791Z,93.68
2024-05-09T01:00:07.802Z,94.11
2024-05-09T01:04:13.765Z,94.35
2024-05-09T01:08:16.771Z,94.38
2024-05-09T01:12:19.772Z,94.94
2024-05-09T01:16:22.677Z,95.44
2024-05-09T01:20:36.600Z,95.75
2024-05-09T01:24:44.146Z,96.91
2024-05-09T01:28:46.914Z,98.16
2024-05-09T01:32:49.959Z,97.88
2024-05-09T01:36:53.004Z,99.65
2024-05-09T01:40:56.066Z,100.00
2024-05-09T01:44:58.941Z,99.86
2024-05-09T01:49:01.917Z,99.82
2024-05-09T01:53:04.867Z,100.00
2024-05-09T01:57:07.648Z,100.00
2024-05-09T02:01:10.423Z,100.00
2024-05-09T02:05:13.361Z,100.00
2024-05-09T02:09:16.208Z,100.00
2024-05-09T02:13:18.947Z,100.00
2024-05-09T02:17:21.791Z,100.00
2024-05-09T02:21:24.606Z,100.00
2024-05-09T02:25:27.586Z,100.00
2024-05-09T02:29:30.574Z,99.98
2024-05-09T02:33:33.624Z,99.95
2024-05-09T02:37:36.893Z,100.00
2024-05-09T02:41:39.638Z,100.00
2024-05-09T02:45:42.379Z,100.00
2024-05-09T02:49:45.484Z,100.00
2024-05-09T02:53:48.271Z,100.00
2024-05-09T02:57:51.278Z,100.00
2024-05-09T03:01:54.301Z,100.00
2024-05-09T03:05:57.000Z,100.00
2024-05-09T03:09:59.697Z,100.00
2024-05-09T03:14:02.546Z,100.00
2024-05-09T03:18:06.409Z,100.00
2024-05-09T03:22:09.851Z,100.00
2024-05-09T03:26:13.378Z,100.00
2024-05-09T03:30:28.813Z,100.00
2024-05-09T03:34:41.573Z,100.00
2024-05-09T03:38:44.576Z,100.00
2024-05-09T03:42:47.506Z,100.00
2024-05-09T03:46:50.281Z,100.00
2024-05-09T03:50:53.078Z,100.00
2024-05-09T03:54:55.812Z,100.00
2024-05-09T03:58:58.568Z,100.00
2024-05-09T04:03:01.799Z,100.00
2024-05-09T04:07:05.004Z,100.00
2024-05-09T04:15:13.403Z,100.00
2024-05-09T04:19:16.696Z,97.69
2024-05-09T04:23:19.641Z,89.35
2024-05-09T04:27:22.377Z,84.78
2024-05-09T04:31:25.092Z,76.25
2024-05-09T04:35:27.999Z,74.08
2024-05-09T04:39:30.934Z,73.90
2024-05-09T04:43:35.158Z,74.58
2024-05-09T04:47:42.041Z,73.89
2024-05-09T04:51:45.107Z,73.04
2024-05-09T04:55:47.883Z,73.06
2024-05-09T04:59:50.763Z,72.63
2024-05-09T05:03:55.882Z,71.92
2024-05-09T05:07:59.190Z,69.27
2024-05-09T05:12:02.954Z,67.44
2024-05-09T05:16:05.915Z,64.91
2024-05-09T05:20:12.690Z,66.35
2024-05-09T05:24:17.822Z,66.77
2024-05-09T05:28:21.430Z,64.82
2024-05-09T05:32:24.771Z,64.20
2024-05-09T05:36:27.784Z,62.04
2024-05-09T05:40:36.529Z,61.58
2024-05-09T05:44:40.990Z,60.04
2024-05-09T05:48:43.707Z,58.67
2024-05-09T05:52:46.691Z,59.70
2024-05-09T05:56:49.440Z,59.47
2024-05-09T06:00:53.526Z,59.37
2024-05-09T06:04:56.719Z,58.19
2024-05-09T06:08:59.856Z,58.26
2024-05-09T06:13:02.520Z,57.76
2024-05-09T06:17:05.179Z,55.43
2024-05-09T06:21:08.146Z,54.21
2024-05-09T06:25:11.114Z,56.22
2024-05-09T06:29:14.153Z,55.45
2024-05-09T06:33:17.228Z,55.42
2024-05-09T06:37:20.179Z,54.76
2024-05-09T06:41:22.887Z,51.76
2024-05-09T06:45:25.658Z,51.43
2024-05-09T06:49:30.136Z,52.11
2024-05-09T06:53:33.147Z,52.32
2024-05-09T06:57:37.238Z,52.78
2024-05-09T07:01:41.299Z,51.48
2024-05-09T07:05:44.823Z,50.76
2024-05-09T07:09:47.855Z,49.77
2024-05-09T07:13:50.823Z,49.28
2024-05-09T07:17:53.817Z,49.60
2024-05-09T07:21:58.017Z,49.20
2024-05-09T07:26:00.848Z,48.64
2024-05-09T07:30:05.595Z,49.18
2024-05-09T07:34:11.812Z,49.64
2024-05-09T07:38:14.904Z,50.55
2024-05-09T07:42:17.928Z,49.54
2024-05-09T07:47:14.622Z,47.38
2024-05-09T07:54:49.296Z,49.93
2024-05-09T07:58:55.710Z,48.19
2024-05-09T08:02:58.675Z,46.94
2024-05-09T08:07:01.583Z,47.49
2024-05-09T08:11:06.576Z,48.96
2024-05-09T08:15:09.593Z,48.59
2024-05-09T08:19:12.801Z,48.67
2024-05-09T08:23:15.812Z,48.51
2024-05-09T08:27:18.557Z,48.25
2024-05-09T08:31:21.513Z,48.46
2024-05-09T08:35:24.379Z,49.07
2024-05-09T08:39:27.233Z,49.49
2024-05-09T08:43:30.827Z,49.08
2024-05-09T08:47:34.067Z,49.93
2024-05-09T08:51:37.219Z,49.22
2024-05-09T08:55:43.186Z,50.50
2024-05-09T08:59:50.824Z,48.84
2024-05-09T09:03:55.257Z,48.57
2024-05-09T09:07:58.164Z,48.27
2024-05-09T09:12:01.127Z,48.83
2024-05-09T09:16:04.377Z,47.20
2024-05-09T09:20:14.122Z,46.95
2024-05-09T09:24:19.337Z,46.82
2024-05-09T09:28:23.300Z,45.98
2024-05-09T09:32:28.974Z,45.96
2024-05-09T09:36:31.942Z,45.25
2024-05-09T09:40:40.748Z,44.41
2024-05-09T09:44:58.001Z,45.67
2024-05-09T09:49:08.416Z,45.61
2024-05-09T09:53:12.572Z,45.66
2024-05-09T09:57:16.125Z,47.15
2024-05-09T10:01:19.021Z,44.86
2024-05-09T10:05:23.393Z,46.28
2024-05-09T10:09:26.502Z,46.35
2024-05-09T10:13:35.257Z,48.26
2024-05-09T10:17:38.597Z,47.25
2024-05-09T10:21:47.088Z,49.40
2024-05-09T10:25:57.121Z,47.00
2024-05-09T10:30:07.014Z,46.62
2024-05-09T10:34:22.194Z,46.42
2024-05-09T10:38:26.356Z,47.88
2024-05-09T10:42:29.620Z,46.48
2024-05-09T10:46:32.523Z,45.66
2024-05-09T10:50:35.312Z,46.39
2024-05-09T10:54:39.573Z,45.50
2024-05-09T10:58:42.554Z,45.38
2024-05-09T11:02:48.320Z,45.00
2024-05-09T11:06:51.246Z,45.06
2024-05-09T11:10:55.384Z,46.10
2024-05-09T11:14:58.340Z,44.87
2024-05-09T11:19:01.254Z,44.67
2024-05-09T11:23:05.747Z,44.74
2024-05-09T11:27:08.595Z,43.39
2024-05-09T11:31:11.675Z,45.16
2024-05-09T11:35:14.526Z,44.59
2024-05-09T11:39:17.515Z,47.09
2024-05-09T11:43:21.055Z,45.62
2024-05-09T11:47:24.620Z,45.70
2024-05-09T11:51:27.678Z,44.54
2024-05-09T11:55:31.033Z,43.59
2024-05-09T11:59:33.885Z,42.38
2024-05-09T12:03:37.793Z,41.54
2024-05-09T12:07:43.391Z,42.90
2024-05-09T12:11:46.393Z,44.04
2024-05-09T12:15:49.279Z,42.74
2024-05-09T12:19:52.790Z,42.10
2024-05-09T12:23:55.675Z,43.87
2024-05-09T12:27:58.643Z,44.05
2024-05-09T12:32:01.557Z,42.94
2024-05-09T12:36:04.645Z,45.42
2024-05-09T12:40:15.823Z,43.58
2024-05-09T12:55:12.174Z,44.29
2024-05-09T12:59:16.600Z,45.79
2024-05-09T13:03:22.168Z,43.94
2024-05-09T13:07:28.685Z,43.24
2024-05-09T13:12:01.859Z,42.09
2024-05-09T13:16:05.642Z,43.42
2024-05-09T13:20:36.306Z,43.51
2024-05-09T13:24:40.894Z,42.82
2024-05-09T13:28:43.945Z,43.22
2024-05-09T13:32:47.678Z,42.63
2024-05-09T13:36:50.898Z,42.66
2024-05-09T13:40:55.231Z,43.96
2024-05-09T13:44:58.503Z,42.83
2024-05-09T13:49:03.134Z,44.21
2024-05-09T13:53:07.701Z,44.32
2024-05-09T13:57:12.092Z,45.01
2024-05-09T14:02:15.283Z,45.47
2024-05-09T14:06:18.667Z,48.10
2024-05-09T14:10:28.658Z,43.97
2024-05-09T14:14:37.599Z,43.05
2024-05-09T14:18:41.465Z,43.25
2024-05-09T14:22:45.759Z,44.61
2024-05-09T14:27:19.092Z,43.87
2024-05-09T14:31:24.450Z,43.85
2024-05-09T14:35:28.960Z,43.88
2024-05-09T14:39:31.963Z,44.07
2024-05-09T14:43:36.344Z,44.73
2024-05-09T14:47:39.563Z,44.11
2024-05-09T14:51:48.550Z,46.41
2024-05-09T14:55:51.601Z,44.33
2024-05-09T15:00:29.630Z,44.89
2024-05-09T15:04:38.941Z,44.44
2024-05-09T15:08:56.722Z,44.54
2024-05-09T15:12:59.865Z,44.47
2024-05-09T15:17:03.985Z,45.27
2024-05-09T15:21:07.458Z,45.03
2024-05-09T15:25:11.276Z,44.94
2024-05-09T15:29:14.513Z,43.89
2024-05-09T15:33:19.392Z,45.69
2024-05-09T15:37:23.665Z,44.77
2024-05-09T15:41:29.602Z,44.77
2024-05-09T15:45:32.656Z,46.07
2024-05-09T15:49:35.865Z,45.57
2024-05-09T15:53:39.133Z,46.29
2024-05-09T15:57:42.129Z,46.46
2024-05-09T16:01:48.750Z,45.70
2024-05-09T16:05:52.139Z,45.79
2024-05-09T16:09:55.849Z,46.89
2024-05-09T16:13:58.916Z,45.79
2024-05-09T16:18:05.001Z,45.45
2024-05-09T16:22:08.067Z,47.19
2024-05-09T16:26:17.335Z,48.21
2024-05-09T16:30:27.884Z,47.59
2024-05-09T16:34:38.379Z,47.32
2024-05-09T16:38:42.942Z,47.87
2024-05-09T16:42:46.117Z,47.27
2024-05-09T16:46:49.097Z,47.60
2024-05-09T16:50:52.118Z,48.15
2024-05-09T16:54:55.088Z,48.79
2024-05-09T16:58:58.123Z,49.08
2024-05-09T17:03:01.044Z,49.35
2024-05-09T17:07:04.932Z,49.51
2024-05-09T17:11:07.939Z,49.23
2024-05-09T17:15:11.246Z,49.98
2024-05-09T17:19:14.157Z,50.93
2024-05-09T17:23:17.322Z,51.24
2024-05-09T17:27:20.210Z,51.95
2024-05-09T17:31:22.951Z,52.67
2024-05-09T17:35:25.862Z,52.44
2024-05-09T17:39:28.603Z,51.84
2024-05-09T17:43:31.454Z,51.92
2024-05-09T17:47:35.980Z,52.25
2024-05-09T17:51:38.931Z,53.22
2024-05-09T17:55:42.505Z,52.82
2024-05-09T17:59:45.652Z,52.09
2024-05-09T18:03:50.046Z,52.27
2024-05-09T18:07:55.418Z,52.00
2024-05-09T18:12:00.017Z,51.85
2024-05-09T18:16:02.868Z,52.06
2024-05-09T18:20:08.948Z,52.33
2024-05-09T18:24:11.987Z,52.62
2024-05-09T18:28:15.572Z,53.85
2024-05-09T18:32:18.717Z,55.03
2024-05-09T18:36:21.811Z,54.09
2024-05-09T18:40:32.783Z,53.67
2024-05-09T18:44:38.798Z,53.52
2024-05-09T18:48:41.855Z,53.60
2024-05-09T18:52:44.906Z,55.49
2024-05-09T18:56:47.713Z,56.77
2024-05-09T19:00:53.273Z,57.23
2024-05-09T19:04:58.002Z,57.82
2024-05-09T19:09:00.857Z,57.50
2024-05-09T19:13:09.343Z,57.28
2024-05-09T19:17:15.494Z,56.62
2024-05-09T19:21:18.349Z,55.72
2024-05-09T19:25:21.064Z,55.49
2024-05-09T19:29:24.060Z,56.14
2024-05-09T19:33:26.853Z,56.80
2024-05-09T19:37:31.543Z,57.24
2024-05-09T19:41:34.302Z,57.38
2024-05-09T19:45:37.300Z,57.70
2024-05-09T19:49:40.469Z,57.41
2024-05-09T19:53:43.473Z,56.88
2024-05-09T19:57:46.619Z,56.41
2024-05-09T20:01:49.661Z,56.14
2024-05-09T20:05:52.663Z,55.66
2024-05-09T20:09:55.534Z,55.83
2024-05-09T20:13:59.689Z,58.51
2024-05-09T20:18:04.075Z,60.63
2024-05-09T20:22:07.230Z,61.59
2024-05-09T20:26:10.704Z,62.64
2024-05-09T20:30:20.911Z,64.56
2024-05-09T20:34:28.379Z,66.18
2024-05-09T20:38:31.388Z,67.68
2024-05-09T20:42:34.259Z,68.83
2024-05-09T20:46:37.026Z,69.46
2024-05-09T20:50:42.530Z,69.94
2024-05-09T20:54:46.406Z,70.30
2024-05-09T20:58:49.326Z,71.68
2024-05-09T21:02:52.203Z,72.00
2024-05-09T21:06:55.131Z,73.31
2024-05-09T21:10:58.046Z,74.72
2024-05-09T21:15:00.904Z,75.30
2024-05-09T21:19:03.884Z,75.81
2024-05-09T21:23:06.772Z,76.14
2024-05-09T21:27:09.654Z,76.70
2024-05-09T21:31:12.533Z,77.71
2024-05-09T21:35:15.436Z,79.09
2024-05-09T21:39:18.327Z,79.69
2024-05-09T21:43:21.319Z,80.59
2024-05-09T21:47:24.640Z,81.89
2024-05-09T21:51:27.410Z,82.21
2024-05-09T21:55:30.294Z,82.78
2024-05-09T21:59:33.123Z,85.16
2024-05-09T22:03:36.215Z,84.22
2024-05-09T22:07:40.335Z,83.71
2024-05-09T22:11:43.146Z,83.78
2024-05-09T22:15:45.946Z,83.90
2024-05-09T22:19:49.582Z,83.78
2024-05-09T22:23:52.387Z,84.20
2024-05-09T22:27:55.208Z,84.08
2024-05-09T22:31:58.031Z,84.40
2024-05-09T22:36:00.741Z,84.75
2024-05-09T22:40:06.801Z,85.40
2024-05-09T22:44:10.013Z,85.58
2024-05-09T22:48:13.118Z,86.15
2024-05-09T22:52:16.154Z,85.78
2024-05-09T22:56:29.208Z,86.66
2024-05-09T23:00:33.250Z,85.82
2024-05-09T23:04:38.391Z,85.42
2024-05-09T23:08:41.328Z,86.34
2024-05-09T23:12:44.144Z,87.07
2024-05-09T23:16:46.989Z,88.39
2024-05-09T23:20:49.993Z,88.91
2024-05-09T23:24:52.751Z,89.49
2024-05-09T23:28:55.514Z,91.24
2024-05-09T23:32:58.443Z,91.26
2024-05-09T23:37:01.413Z,91.56
2024-05-09T23:41:06.132Z,91.77
2024-05-09T23:45:09.050Z,91.36
2024-05-09T23:49:12.156Z,90.93
2024-05-09T23:53:15.057Z,90.27
2024-05-09T23:57:17.816Z,90.12
